createdAt,value
2024-04-07T00:00:02.418Z,989.67
2024-04-07T00:01:01.408Z,989.72
2024-04-07T00:02:01.391Z,989.74
2024-04-07T00:03:01.388Z,989.69
2024-04-07T00:04:01.390Z,989.72
2024-04-07T00:05:01.562Z,989.70
2024-04-07T00:06:01.357Z,989.78
2024-04-07T00:07:02.376Z,989.79
2024-04-07T00:08:01.351Z,989.83
2024-04-07T00:09:01.354Z,989.77
2024-04-07T00:10:01.335Z,989.79
2024-04-07T00:11:01.327Z,989.74
2024-04-07T00:12:01.321Z,989.70
2024-04-07T00:13:01.314Z,989.67
2024-04-07T00:14:01.334Z,989.70
2024-04-07T00:15:01.289Z,989.76
2024-04-07T00:16:01.296Z,989.82
2024-04-07T00:17:01.321Z,989.77
2024-04-07T00:18:01.281Z,989.81
2024-04-07T00:19:01.276Z,989.68
2024-04-07T00:20:01.329Z,989.64
2024-04-07T00:21:01.279Z,989.60
2024-04-07T00:22:01.259Z,989.56
2024-04-07T00:23:01.251Z,989.51
2024-04-07T00:24:01.231Z,989.56
2024-04-07T00:25:01.252Z,989.57
2024-04-07T00:26:01.236Z,989.51
2024-04-07T00:27:01.216Z,989.46
2024-04-07T00:28:01.244Z,989.46
2024-04-07T00:29:01.213Z,989.44
2024-04-07T00:30:01.209Z,989.48
2024-04-07T00:31:01.194Z,989.35
2024-04-07T00:32:01.177Z,989.35
2024-04-07T00:33:01.182Z,989.48
2024-04-07T00:34:01.159Z,989.47
2024-04-07T00:35:01.177Z,989.56
2024-04-07T00:36:01.150Z,989.60
2024-04-07T00:37:01.147Z,989.55
2024-04-07T00:38:01.129Z,989.57
2024-04-07T00:39:01.116Z,989.56
2024-04-07T00:40:01.128Z,989.53
2024-04-07T00:41:01.120Z,989.63
2024-04-07T00:42:01.104Z,989.58
2024-04-07T00:43:01.107Z,989.50
2024-04-07T00:44:01.098Z,989.58
2024-04-07T00:45:01.113Z,989.62
2024-04-07T00:46:01.102Z,989.53
2024-04-07T00:47:01.087Z,989.50
2024-04-07T00:48:01.052Z,989.61
2024-04-07T00:49:01.056Z,989.62
2024-04-07T00:50:02.044Z,989.52
2024-04-07T00:51:01.037Z,989.51
2024-04-07T00:52:01.039Z,989.57
2024-04-07T00:53:01.028Z,989.53
2024-04-07T00:54:01.004Z,989.51
2024-04-07T00:55:01.012Z,989.48
2024-04-07T00:56:00.999Z,989.56
2024-04-07T00:57:00.983Z,989.57
2024-04-07T00:58:00.991Z,989.58
2024-04-07T00:59:00.984Z,989.56
2024-04-07T01:00:00.963Z,989.57
2024-04-07T01:01:00.958Z,989.65
2024-04-07T01:02:00.968Z,989.51
2024-04-07T01:03:00.971Z,989.57
2024-04-07T01:04:00.950Z,989.54
2024-04-07T01:05:00.935Z,989.58
2024-04-07T01:06:00.931Z,989.58
2024-04-07T01:07:00.925Z,989.64
2024-04-07T01:08:00.916Z,989.64
2024-04-07T01:09:00.898Z,989.60
2024-04-07T01:10:00.898Z,989.65
2024-04-07T01:11:00.881Z,989.69
2024-04-07T01:12:00.901Z,989.65
2024-04-07T01:13:00.875Z,989.62
2024-04-07T01:14:01.032Z,989.59
2024-04-07T01:15:00.864Z,989.60
2024-04-07T01:16:00.866Z,989.58
2024-04-07T01:17:00.844Z,989.58
2024-04-07T01:18:00.825Z,989.56
2024-04-07T01:19:00.955Z,989.52
2024-04-07T01:20:00.819Z,989.53
2024-04-07T01:21:00.807Z,989.58
2024-04-07T01:22:00.816Z,989.65
2024-04-07T01:23:00.796Z,989.76
2024-04-07T01:24:00.799Z,989.74
2024-04-07T01:25:00.817Z,989.74
2024-04-07T01:26:00.784Z,989.69
2024-04-07T01:27:00.775Z,989.65
2024-04-07T01:28:00.760Z,989.69
2024-04-07T01:29:00.772Z,989.62
2024-04-07T01:30:00.766Z,989.60
2024-04-07T01:31:00.742Z,989.59
2024-04-07T01:32:00.732Z,989.57
2024-04-07T01:33:00.735Z,989.57
2024-04-07T01:34:00.722Z,989.61
2024-04-07T01:35:00.742Z,989.56
2024-04-07T01:36:00.712Z,989.61
2024-04-07T01:37:00.691Z,989.58
2024-04-07T01:38:00.699Z,989.56
2024-04-07T01:39:00.678Z,989.53
2024-04-07T01:40:00.694Z,989.54
2024-04-07T01:41:00.685Z,989.52
2024-04-07T01:42:00.669Z,989.54
2024-04-07T01:43:00.654Z,989.48
2024-04-07T01:44:00.662Z,989.46
2024-04-07T01:45:00.695Z,989.48
2024-04-07T01:46:00.666Z,989.52
2024-04-07T01:47:00.621Z,989.44
2024-04-07T01:48:00.626Z,989.44
2024-04-07T01:49:00.633Z,989.48
2024-04-07T01:50:00.626Z,989.52
2024-04-07T01:51:00.603Z,989.56
2024-04-07T01:52:00.612Z,989.49
2024-04-07T01:53:00.597Z,989.54
2024-04-07T01:54:00.650Z,989.52
2024-04-07T01:55:00.580Z,989.60
2024-04-07T01:56:00.564Z,989.56
2024-04-07T01:57:00.591Z,989.57
2024-04-07T01:58:00.618Z,989.57
2024-04-07T01:59:00.577Z,989.60
2024-04-07T02:00:00.565Z,989.64
2024-04-07T02:01:00.545Z,989.65
2024-04-07T02:02:00.541Z,989.61
2024-04-07T02:03:00.598Z,989.58
2024-04-07T02:04:00.565Z,989.56
2024-04-07T02:05:00.559Z,989.51
2024-04-07T02:06:00.554Z,989.52
2024-04-07T02:07:00.492Z,989.53
2024-04-07T02:08:00.483Z,989.53
2024-04-07T02:09:00.479Z,989.61
2024-04-07T02:10:00.464Z,989.57
2024-04-07T02:11:00.483Z,989.60
2024-04-07T02:12:00.468Z,989.59
2024-04-07T02:13:00.450Z,989.58
2024-04-07T02:14:00.457Z,989.59
2024-04-07T02:15:00.456Z,989.57
2024-04-07T02:16:00.458Z,989.57
2024-04-07T02:17:00.417Z,989.64
2024-04-07T02:18:00.453Z,989.65
2024-04-07T02:19:00.415Z,989.68
2024-04-07T02:20:00.413Z,989.76
2024-04-07T02:21:00.415Z,989.69
2024-04-07T02:22:00.385Z,989.68
2024-04-07T02:23:00.372Z,989.66
2024-04-07T02:24:00.382Z,989.70
2024-04-07T02:25:00.359Z,989.73
2024-04-07T02:26:00.364Z,989.70
2024-04-07T02:27:00.351Z,989.78
2024-04-07T02:28:00.335Z,989.82
2024-04-07T02:29:00.336Z,989.84
2024-04-07T02:30:00.342Z,989.79
2024-04-07T02:31:00.308Z,989.72
2024-04-07T02:32:00.317Z,989.70
2024-04-07T02:33:00.298Z,989.72
2024-04-07T02:34:00.290Z,989.73
2024-04-07T02:35:00.303Z,989.68
2024-04-07T02:36:00.278Z,989.76
2024-04-07T02:37:00.301Z,989.70
2024-04-07T02:38:00.265Z,989.68
2024-04-07T02:39:00.268Z,989.73
2024-04-07T02:40:00.260Z,989.70
2024-04-07T02:41:00.261Z,989.70
2024-04-07T02:42:00.259Z,989.58
2024-04-07T02:43:00.248Z,989.70
2024-04-07T02:44:00.251Z,989.67
2024-04-07T02:45:00.213Z,989.67
2024-04-07T02:46:00.226Z,989.60
2024-04-07T02:47:01.193Z,989.62
2024-04-07T02:48:00.199Z,989.67
2024-04-07T02:49:00.191Z,989.68
2024-04-07T02:50:00.250Z,989.79
2024-04-07T02:51:00.176Z,989.81
2024-04-07T02:52:00.191Z,989.72
2024-04-07T02:53:00.152Z,989.70
2024-04-07T02:54:00.154Z,989.65
2024-04-07T02:55:00.169Z,989.62
2024-04-07T02:56:00.137Z,989.66
2024-04-07T02:57:00.145Z,989.55
2024-04-07T02:58:00.125Z,989.58
2024-04-07T02:59:00.118Z,989.62
2024-04-07T03:00:00.133Z,989.59
2024-04-07T03:01:00.100Z,989.68
2024-04-07T03:02:00.113Z,989.70
2024-04-07T03:03:00.102Z,989.72
2024-04-07T03:04:00.077Z,989.75
2024-04-07T03:05:00.130Z,989.79
2024-04-07T03:06:00.068Z,989.79
2024-04-07T03:07:00.071Z,989.78
2024-04-07T03:08:00.067Z,989.79
2024-04-07T03:09:00.047Z,989.76
2024-04-07T03:10:00.038Z,989.77
2024-04-07T03:11:00.049Z,989.76
2024-04-07T03:12:00.034Z,989.76
2024-04-07T03:13:00.011Z,989.78
2024-04-07T03:14:00.003Z,989.73
2024-04-07T03:15:00.010Z,989.73
2024-04-07T03:15:59.989Z,989.69
2024-04-07T03:17:01.417Z,989.75
2024-04-07T03:18:00.979Z,989.69
2024-04-07T03:18:59.964Z,989.68
2024-04-07T03:19:59.964Z,989.67
2024-04-07T03:20:59.961Z,989.74
2024-04-07T03:21:59.944Z,989.72
2024-04-07T03:22:59.944Z,989.73
2024-04-07T03:23:59.929Z,989.75
2024-04-07T03:24:59.936Z,989.71
2024-04-07T03:25:59.932Z,989.68
2024-04-07T03:26:59.929Z,989.75
2024-04-07T03:27:59.911Z,989.68
2024-04-07T03:28:59.901Z,989.70
2024-04-07T03:29:59.901Z,989.67
2024-04-07T03:31:00.000Z,989.78
2024-04-07T03:31:59.874Z,989.75
2024-04-07T03:32:59.870Z,989.76
2024-04-07T03:34:00.124Z,989.85
2024-04-07T03:34:59.860Z,989.78
2024-04-07T03:35:59.868Z,989.79
2024-04-07T03:36:59.906Z,989.77
2024-04-07T03:37:59.844Z,989.73
2024-04-07T03:38:59.831Z,989.67
2024-04-07T03:39:59.849Z,989.76
2024-04-07T03:40:59.808Z,989.84
2024-04-07T03:41:59.817Z,989.90
2024-04-07T03:42:59.798Z,989.91
2024-04-07T03:43:59.793Z,989.90
2024-04-07T03:44:59.797Z,989.99
2024-04-07T03:45:59.775Z,990.07
2024-04-07T03:46:59.779Z,990.09
2024-04-07T03:47:59.769Z,990.08
2024-04-07T03:49:00.777Z,990.11
2024-04-07T03:49:59.765Z,990.12
2024-04-07T03:50:59.756Z,990.08
2024-04-07T03:51:59.733Z,990.06
2024-04-07T03:52:59.736Z,990.09
2024-04-07T03:53:59.753Z,990.05
2024-04-07T03:54:59.760Z,990.10
2024-04-07T03:55:59.724Z,990.07
2024-04-07T03:56:59.713Z,990.09
2024-04-07T03:57:59.706Z,990.12
2024-04-07T03:58:59.699Z,990.16
2024-04-07T03:59:59.690Z,990.18
2024-04-07T04:00:59.685Z,990.19
2024-04-07T04:01:59.675Z,990.19
2024-04-07T04:02:59.673Z,990.22
2024-04-07T04:03:59.680Z,990.26
2024-04-07T04:04:59.689Z,990.36
2024-04-07T04:05:59.650Z,990.39
2024-04-07T04:06:59.658Z,990.37
2024-04-07T04:07:59.655Z,990.39
2024-04-07T04:08:59.630Z,990.48
2024-04-07T04:09:59.617Z,990.41
2024-04-07T04:10:59.627Z,990.47
2024-04-07T04:11:59.626Z,990.50
2024-04-07T04:12:59.640Z,990.57
2024-04-07T04:13:59.608Z,990.58
2024-04-07T04:14:59.598Z,990.62
2024-04-07T04:15:59.584Z,990.63
2024-04-07T04:16:59.586Z,990.63
2024-04-07T04:17:59.576Z,990.63
2024-04-07T04:18:59.602Z,990.70
2024-04-07T04:19:59.557Z,990.60
2024-04-07T04:20:59.568Z,990.69
2024-04-07T04:21:59.563Z,990.71
2024-04-07T04:22:59.550Z,990.68
2024-04-07T04:23:59.569Z,990.65
2024-04-07T04:24:59.529Z,990.67
2024-04-07T04:25:59.519Z,990.70
2024-04-07T04:26:59.512Z,990.70
2024-04-07T04:27:59.523Z,990.71
2024-04-07T04:28:59.498Z,990.72
2024-04-07T04:29:59.512Z,990.80
2024-04-07T04:30:59.513Z,990.77
2024-04-07T04:31:59.477Z,990.77
2024-04-07T04:32:59.465Z,990.79
2024-04-07T04:33:59.466Z,990.84
2024-04-07T04:34:59.469Z,990.87
2024-04-07T04:35:59.471Z,990.91
2024-04-07T04:36:59.453Z,990.94
2024-04-07T04:37:59.437Z,990.93
2024-04-07T04:38:59.438Z,990.99
2024-04-07T04:39:59.432Z,991.05
2024-04-07T04:40:59.454Z,991.06
2024-04-07T04:41:59.433Z,991.08
2024-04-07T04:42:59.409Z,991.10
2024-04-07T04:43:59.405Z,991.21
2024-04-07T04:44:59.388Z,991.20
2024-04-07T04:45:59.391Z,991.23
2024-04-07T04:46:59.420Z,991.17
2024-04-07T04:47:59.378Z,991.16
2024-04-07T04:48:59.404Z,991.24
2024-04-07T04:49:59.349Z,991.25
2024-04-07T04:50:59.357Z,991.36
2024-04-07T04:51:59.425Z,991.34
2024-04-07T04:52:59.387Z,991.42
2024-04-07T04:53:59.341Z,991.41
2024-04-07T04:54:59.325Z,991.41
2024-04-07T04:55:59.323Z,991.47
2024-04-07T04:56:59.305Z,991.43
2024-04-07T04:57:59.309Z,991.51
2024-04-07T04:58:59.335Z,991.57
2024-04-07T05:00:00.261Z,991.60
2024-04-07T05:01:00.290Z,991.62
2024-04-07T05:01:59.367Z,991.63
2024-04-07T05:02:59.275Z,991.62
2024-04-07T05:03:59.272Z,991.55
2024-04-07T05:04:59.287Z,991.46
2024-04-07T05:05:59.251Z,991.44
2024-04-07T05:06:59.251Z,991.51
2024-04-07T05:07:59.237Z,991.57
2024-04-07T05:08:59.234Z,991.49
2024-04-07T05:09:59.248Z,991.55
2024-04-07T05:10:59.218Z,991.54
2024-04-07T05:11:59.232Z,991.53
2024-04-07T05:12:59.202Z,991.51
2024-04-07T05:13:59.198Z,991.55
2024-04-07T05:14:59.195Z,991.54
2024-04-07T05:15:59.222Z,991.67
2024-04-07T05:16:59.200Z,991.58
2024-04-07T05:17:59.178Z,991.58
2024-04-07T05:18:59.167Z,991.65
2024-04-07T05:19:59.152Z,991.64
2024-04-07T05:20:59.784Z,991.67
2024-04-07T05:21:59.166Z,991.61
2024-04-07T05:22:59.134Z,991.55
2024-04-07T05:23:59.123Z,991.57
2024-04-07T05:24:59.113Z,991.61
2024-04-07T05:25:59.108Z,991.64
2024-04-07T05:26:59.131Z,991.75
2024-04-07T05:27:59.084Z,991.72
2024-04-07T05:28:59.074Z,991.77
2024-04-07T05:29:59.072Z,991.85
2024-04-07T05:30:59.071Z,991.87
2024-04-07T05:31:59.089Z,991.93
2024-04-07T05:32:59.047Z,991.96
2024-04-07T05:33:59.261Z,991.90
2024-04-07T05:34:59.036Z,991.94
2024-04-07T05:35:59.027Z,991.96
2024-04-07T05:36:59.011Z,991.94
2024-04-07T05:37:59.014Z,992.00
2024-04-07T05:38:59.013Z,992.06
2024-04-07T05:40:01.547Z,992.03
2024-04-07T05:40:58.996Z,991.99
2024-04-07T05:41:58.979Z,991.95
2024-04-07T05:42:58.988Z,991.98
2024-04-07T05:43:59.000Z,992.05
2024-04-07T05:44:58.979Z,992.04
2024-04-07T05:45:58.956Z,992.05
2024-04-07T05:46:58.982Z,992.08
2024-04-07T05:47:58.955Z,991.93
2024-04-07T05:48:59.761Z,991.95
2024-04-07T05:49:58.952Z,992.00
2024-04-07T05:50:58.915Z,992.06
2024-04-07T05:51:58.908Z,992.11
2024-04-07T05:52:58.912Z,992.12
2024-04-07T05:53:58.907Z,992.13
2024-04-07T05:54:59.224Z,992.18
2024-04-07T05:55:58.933Z,992.15
2024-04-07T05:56:58.952Z,992.15
2024-04-07T05:57:59.103Z,992.09
2024-04-07T05:58:58.891Z,992.10
2024-04-07T05:59:58.864Z,992.12
2024-04-07T06:00:58.843Z,992.00
2024-04-07T06:01:58.890Z,991.96
2024-04-07T06:02:58.843Z,992.03
2024-04-07T06:03:58.818Z,992.08
2024-04-07T06:04:59.024Z,992.08
2024-04-07T06:05:58.808Z,992.08
2024-04-07T06:06:58.835Z,992.07
2024-04-07T06:07:58.816Z,992.14
2024-04-07T06:08:58.780Z,992.10
2024-04-07T06:09:58.800Z,992.07
2024-04-07T06:10:58.837Z,992.11
2024-04-07T06:11:58.897Z,992.13
2024-04-07T06:12:58.768Z,992.02
2024-04-07T06:13:58.779Z,992.02
2024-04-07T06:14:59.764Z,992.05
2024-04-07T06:15:58.739Z,992.09
2024-04-07T06:16:58.744Z,992.10
2024-04-07T06:17:58.740Z,992.12
2024-04-07T06:18:58.730Z,992.05
2024-04-07T06:19:58.790Z,992.09
2024-04-07T06:20:58.707Z,992.06
2024-04-07T06:21:58.696Z,992.04
2024-04-07T06:22:58.699Z,992.01
2024-04-07T06:23:59.706Z,991.99
2024-04-07T06:24:58.676Z,991.99
2024-04-07T06:25:58.706Z,991.88
2024-04-07T06:26:58.664Z,991.86
2024-04-07T06:27:58.653Z,991.95
2024-04-07T06:28:58.682Z,991.94
2024-04-07T06:29:58.646Z,992.04
2024-04-07T06:30:58.800Z,992.09
2024-04-07T06:31:58.707Z,992.21
2024-04-07T06:32:58.615Z,992.27
2024-04-07T06:33:58.615Z,992.39
2024-04-07T06:34:58.641Z,992.36
2024-04-07T06:35:58.614Z,992.37
2024-04-07T06:36:58.595Z,992.39
2024-04-07T06:37:58.648Z,992.37
2024-04-07T06:38:58.589Z,992.43
2024-04-07T06:39:58.572Z,992.37
2024-04-07T06:40:58.656Z,992.33
2024-04-07T06:41:58.557Z,992.30
2024-04-07T06:42:58.587Z,992.26
2024-04-07T06:43:58.621Z,992.34
2024-04-07T06:44:58.559Z,992.41
2024-04-07T06:45:58.598Z,992.31
2024-04-07T06:46:58.602Z,992.44
2024-04-07T06:47:58.559Z,992.47
2024-04-07T06:48:58.511Z,992.43
2024-04-07T06:49:58.563Z,992.40
2024-04-07T06:50:58.508Z,992.51
2024-04-07T06:51:58.535Z,992.51
2024-04-07T06:52:58.648Z,992.49
2024-04-07T06:53:58.490Z,992.56
2024-04-07T06:54:58.472Z,992.59
2024-04-07T06:55:58.728Z,992.64
2024-04-07T06:56:58.471Z,992.62
2024-04-07T06:57:58.600Z,992.67
2024-04-07T06:58:58.504Z,992.72
2024-04-07T06:59:58.535Z,992.78
2024-04-07T07:00:58.458Z,992.86
2024-04-07T07:01:58.496Z,992.90
2024-04-07T07:02:58.436Z,992.84
2024-04-07T07:03:58.420Z,992.84
2024-04-07T07:04:58.425Z,992.89
2024-04-07T07:05:58.403Z,992.91
2024-04-07T07:06:58.440Z,992.91
2024-04-07T07:07:58.447Z,992.85
2024-04-07T07:08:58.391Z,992.88
2024-04-07T07:09:58.402Z,992.89
2024-04-07T07:10:58.392Z,992.86
2024-04-07T07:11:58.371Z,992.92
2024-04-07T07:12:58.393Z,992.95
2024-04-07T07:13:58.410Z,993.01
2024-04-07T07:14:58.345Z,993.07
2024-04-07T07:15:58.348Z,993.05
2024-04-07T07:16:58.381Z,993.06
2024-04-07T07:17:58.371Z,993.00
2024-04-07T07:18:58.364Z,992.95
2024-04-07T07:19:58.368Z,992.85
2024-04-07T07:20:58.316Z,992.90
2024-04-07T07:21:58.303Z,992.78
2024-04-07T07:22:58.388Z,992.81
2024-04-07T07:23:58.286Z,992.90
2024-04-07T07:24:58.292Z,993.08
2024-04-07T07:25:58.296Z,993.19
2024-04-07T07:26:58.258Z,993.25
2024-04-07T07:27:58.261Z,993.28
2024-04-07T07:28:58.322Z,993.26
2024-04-07T07:29:58.253Z,993.23
2024-04-07T07:30:58.248Z,993.18
2024-04-07T07:31:58.309Z,993.19
2024-04-07T07:32:58.232Z,993.14
2024-04-07T07:33:58.221Z,993.12
2024-04-07T07:34:58.282Z,993.23
2024-04-07T07:35:58.205Z,993.38
2024-04-07T07:36:58.208Z,993.38
2024-04-07T07:37:58.230Z,993.39
2024-04-07T07:38:58.195Z,993.45
2024-04-07T07:39:58.476Z,993.54
2024-04-07T07:40:58.239Z,993.53
2024-04-07T07:41:58.187Z,993.56
2024-04-07T07:42:58.202Z,993.56
2024-04-07T07:43:58.237Z,993.55
2024-04-07T07:44:58.194Z,993.65
2024-04-07T07:45:58.309Z,993.62
2024-04-07T07:46:58.191Z,993.64
2024-04-07T07:47:58.232Z,993.77
2024-04-07T07:48:58.130Z,993.82
2024-04-07T07:49:58.162Z,993.85
2024-04-07T07:50:58.113Z,993.83
2024-04-07T07:51:58.109Z,993.81
2024-04-07T07:52:58.132Z,993.76
2024-04-07T07:53:58.108Z,993.76
2024-04-07T07:54:58.777Z,993.74
2024-04-07T07:55:58.160Z,993.81
2024-04-07T07:56:58.099Z,993.80
2024-04-07T07:57:58.064Z,993.77
2024-04-07T07:58:58.061Z,993.82
2024-04-07T08:00:05.456Z,993.89
2024-04-07T08:01:00.053Z,993.98
2024-04-07T08:01:58.080Z,993.96
2024-04-07T08:02:58.030Z,994.02
2024-04-07T08:03:58.022Z,993.99
2024-04-07T08:04:58.062Z,993.89
2024-04-07T08:05:58.023Z,993.86
2024-04-07T08:06:58.004Z,993.88
2024-04-07T08:07:58.017Z,993.84
2024-04-07T08:08:58.056Z,993.84
2024-04-07T08:09:58.015Z,993.86
2024-04-07T08:10:58.083Z,993.83
2024-04-07T08:11:57.975Z,993.83
2024-04-07T08:12:57.970Z,993.80
2024-04-07T08:13:57.983Z,993.81
2024-04-07T08:14:57.966Z,993.84
2024-04-07T08:15:57.957Z,993.82
2024-04-07T08:16:58.048Z,993.92
2024-04-07T08:17:58.112Z,993.86
2024-04-07T08:18:57.926Z,993.86
2024-04-07T08:19:57.967Z,993.82
2024-04-07T08:20:57.905Z,993.73
2024-04-07T08:21:57.960Z,993.64
2024-04-07T08:22:57.905Z,993.62
2024-04-07T08:23:57.890Z,993.53
2024-04-07T08:24:57.880Z,993.49
2024-04-07T08:25:57.900Z,993.50
2024-04-07T08:26:57.900Z,993.58
2024-04-07T08:27:57.855Z,993.61
2024-04-07T08:28:57.868Z,993.72
2024-04-07T08:29:57.843Z,993.72
2024-04-07T08:30:57.857Z,993.66
2024-04-07T08:31:57.869Z,993.56
2024-04-07T08:32:57.852Z,993.47
2024-04-07T08:33:57.829Z,993.40
2024-04-07T08:34:57.873Z,993.40
2024-04-07T08:35:57.831Z,993.30
2024-04-07T08:36:57.859Z,993.34
2024-04-07T08:37:57.849Z,993.44
2024-04-07T08:38:57.792Z,993.34
2024-04-07T08:39:58.795Z,993.25
2024-04-07T08:40:57.819Z,993.33
2024-04-07T08:41:57.870Z,993.33
2024-04-07T08:42:57.879Z,993.35
2024-04-07T08:43:59.167Z,993.38
2024-04-07T08:44:58.766Z,993.34
2024-04-07T08:45:57.919Z,993.29
2024-04-07T08:46:57.785Z,993.37
2024-04-07T08:47:57.859Z,993.39
2024-04-07T08:48:57.719Z,993.31
2024-04-07T08:49:57.746Z,993.30
2024-04-07T08:50:57.714Z,993.28
2024-04-07T08:51:57.711Z,993.27
2024-04-07T08:52:58.255Z,993.26
2024-04-07T08:53:57.696Z,993.26
2024-04-07T08:54:58.807Z,993.21
2024-04-07T08:55:57.701Z,993.19
2024-04-07T08:56:57.682Z,993.22
2024-04-07T08:57:57.697Z,993.25
2024-04-07T08:58:57.728Z,993.30
2024-04-07T08:59:57.660Z,993.25
2024-04-07T09:00:57.665Z,993.37
2024-04-07T09:01:57.730Z,993.31
2024-04-07T09:02:57.663Z,993.27
2024-04-07T09:03:57.710Z,993.35
2024-04-07T09:04:57.643Z,993.36
2024-04-07T09:05:57.639Z,993.38
2024-04-07T09:06:57.616Z,993.47
2024-04-07T09:07:57.617Z,993.46
2024-04-07T09:08:57.619Z,993.41
2024-04-07T09:09:58.633Z,993.47
2024-04-07T09:10:57.611Z,993.43
2024-04-07T09:11:57.583Z,993.46
2024-04-07T09:12:57.582Z,993.50
2024-04-07T09:13:57.638Z,993.46
2024-04-07T09:14:57.582Z,993.51
2024-04-07T09:15:57.562Z,993.46
2024-04-07T09:16:57.574Z,993.50
2024-04-07T09:17:57.606Z,993.39
2024-04-07T09:19:00.119Z,993.46
2024-04-07T09:19:57.611Z,993.51
2024-04-07T09:20:57.524Z,993.52
2024-04-07T09:21:57.522Z,993.54
2024-04-07T09:22:57.532Z,993.61
2024-04-07T09:23:57.508Z,993.60
2024-04-07T09:24:57.514Z,993.56
2024-04-07T09:25:57.531Z,993.53
2024-04-07T09:26:57.491Z,993.63
2024-04-07T09:27:57.478Z,993.57
2024-04-07T09:28:57.507Z,993.57
2024-04-07T09:29:57.472Z,993.54
2024-04-07T09:30:57.479Z,993.52
2024-04-07T09:31:57.474Z,993.60
2024-04-07T09:32:57.460Z,993.61
2024-04-07T09:33:57.444Z,993.64
2024-04-07T09:34:57.459Z,993.52
2024-04-07T09:35:57.450Z,993.59
2024-04-07T09:36:57.426Z,993.61
2024-04-07T09:37:57.451Z,993.50
2024-04-07T09:38:57.415Z,993.56
2024-04-07T09:39:57.410Z,993.50
2024-04-07T09:40:57.473Z,993.49
2024-04-07T09:41:57.417Z,993.63
2024-04-07T09:42:57.380Z,993.44
2024-04-07T09:43:57.397Z,993.46
2024-04-07T09:44:57.366Z,993.43
2024-04-07T09:45:57.378Z,993.40
2024-04-07T09:46:57.391Z,993.42
2024-04-07T09:47:57.346Z,993.30
2024-04-07T09:48:57.344Z,993.33
2024-04-07T09:49:57.334Z,993.31
2024-04-07T09:50:57.338Z,993.36
2024-04-07T09:51:57.330Z,993.40
2024-04-07T09:52:57.368Z,993.31
2024-04-07T09:53:57.314Z,993.39
2024-04-07T09:54:57.317Z,993.29
2024-04-07T09:55:57.324Z,993.27
2024-04-07T09:56:57.309Z,993.21
2024-04-07T09:57:57.353Z,993.13
2024-04-07T09:58:57.322Z,993.26
2024-04-07T09:59:57.266Z,993.19
2024-04-07T10:00:57.274Z,993.25
2024-04-07T10:01:57.309Z,993.19
2024-04-07T10:02:57.257Z,993.34
2024-04-07T10:03:57.272Z,993.24
2024-04-07T10:04:57.307Z,993.14
2024-04-07T10:05:57.270Z,993.20
2024-04-07T10:06:57.256Z,993.09
2024-04-07T10:07:57.235Z,993.07
2024-04-07T10:08:57.426Z,993.02
2024-04-07T10:09:57.226Z,993.08
2024-04-07T10:11:04.714Z,993.10
2024-04-07T10:11:59.201Z,993.12
2024-04-07T10:12:57.187Z,993.14
2024-04-07T10:13:57.198Z,993.11
2024-04-07T10:14:57.192Z,993.03
2024-04-07T10:15:57.375Z,993.15
2024-04-07T10:16:57.192Z,993.19
2024-04-07T10:17:57.162Z,993.18
2024-04-07T10:18:57.344Z,993.19
2024-04-07T10:19:57.179Z,993.14
2024-04-07T10:20:57.167Z,993.27
2024-04-07T10:21:57.165Z,993.21
2024-04-07T10:22:57.201Z,993.25
2024-04-07T10:23:57.138Z,993.20
2024-04-07T10:24:57.133Z,993.27
2024-04-07T10:25:57.144Z,993.21
2024-04-07T10:26:57.152Z,993.24
2024-04-07T10:27:57.096Z,993.35
2024-04-07T10:28:57.142Z,993.26
2024-04-07T10:29:57.086Z,993.28
2024-04-07T10:30:57.089Z,993.26
2024-04-07T10:31:57.097Z,993.28
2024-04-07T10:32:57.329Z,993.23
2024-04-07T10:33:57.077Z,993.30
2024-04-07T10:34:57.810Z,993.29
2024-04-07T10:35:57.043Z,993.33
2024-04-07T10:36:57.053Z,993.23
2024-04-07T10:37:57.037Z,993.26
2024-04-07T10:38:57.043Z,993.20
2024-04-07T10:39:57.017Z,993.06
2024-04-07T10:40:57.012Z,993.13
2024-04-07T10:41:57.020Z,993.09
2024-04-07T10:42:57.023Z,993.07
2024-04-07T10:43:56.995Z,992.97
2024-04-07T10:44:56.995Z,992.90
2024-04-07T10:45:57.031Z,992.92
2024-04-07T10:46:57.036Z,992.93
2024-04-07T10:47:57.077Z,993.00
2024-04-07T10:48:56.978Z,992.85
2024-04-07T10:49:56.973Z,992.99
2024-04-07T10:50:56.946Z,992.97
2024-04-07T10:51:56.946Z,992.94
2024-04-07T10:52:56.934Z,992.98
2024-04-07T10:53:56.930Z,993.01
2024-04-07T10:54:56.942Z,992.91
2024-04-07T10:55:56.998Z,992.88
2024-04-07T10:56:56.909Z,992.96
2024-04-07T10:57:56.902Z,992.94
2024-04-07T10:58:56.889Z,992.80
2024-04-07T10:59:56.900Z,992.80
2024-04-07T11:00:56.885Z,992.89
2024-04-07T11:01:56.874Z,992.80
2024-04-07T11:02:56.882Z,992.84
2024-04-07T11:03:56.868Z,992.75
2024-04-07T11:04:56.883Z,992.78
2024-04-07T11:05:56.877Z,992.81
2024-04-07T11:06:56.868Z,992.78
2024-04-07T11:07:56.838Z,992.70
2024-04-07T11:08:56.849Z,992.77
2024-04-07T11:09:56.885Z,992.95
2024-04-07T11:10:56.880Z,992.78
2024-04-07T11:11:56.865Z,992.78
2024-04-07T11:12:56.807Z,992.73
2024-04-07T11:13:56.884Z,992.72
2024-04-07T11:14:56.846Z,992.79
2024-04-07T11:15:56.803Z,992.78
2024-04-07T11:16:57.782Z,992.65
2024-04-07T11:17:56.807Z,992.81
2024-04-07T11:18:56.779Z,992.61
2024-04-07T11:19:56.785Z,992.59
2024-04-07T11:20:56.794Z,992.67
2024-04-07T11:21:56.762Z,992.87
2024-04-07T11:22:56.765Z,992.56
2024-04-07T11:23:56.782Z,992.56
2024-04-07T11:24:56.752Z,992.60
2024-04-07T11:25:56.745Z,992.60
2024-04-07T11:26:56.739Z,992.64
2024-04-07T11:27:56.720Z,992.53
2024-04-07T11:28:56.704Z,992.47
2024-04-07T11:29:56.698Z,992.46
2024-04-07T11:30:56.705Z,992.53
2024-04-07T11:32:07.572Z,992.39
2024-04-07T11:32:58.741Z,992.69
2024-04-07T11:33:56.693Z,992.38
2024-04-07T11:34:56.677Z,992.39
2024-04-07T11:35:56.693Z,992.39
2024-04-07T11:36:56.649Z,992.44
2024-04-07T11:37:56.649Z,992.46
2024-04-07T11:38:56.645Z,992.55
2024-04-07T11:39:57.277Z,992.47
2024-04-07T11:40:57.631Z,992.48
2024-04-07T11:41:56.623Z,992.51
2024-04-07T11:42:56.632Z,992.44
2024-04-07T11:43:56.611Z,992.52
2024-04-07T11:44:56.633Z,992.47
2024-04-07T11:45:56.619Z,992.55
2024-04-07T11:46:56.602Z,992.47
2024-04-07T11:47:56.597Z,992.52
2024-04-07T11:48:56.755Z,992.43
2024-04-07T11:49:56.580Z,992.60
2024-04-07T11:50:56.627Z,992.46
2024-04-07T11:51:56.588Z,992.83
2024-04-07T11:52:56.558Z,992.60
2024-04-07T11:53:56.550Z,992.61
2024-04-07T11:54:56.540Z,992.51
2024-04-07T11:55:56.531Z,992.46
2024-04-07T11:56:56.570Z,992.40
2024-04-07T11:57:56.525Z,992.34
2024-04-07T11:58:56.523Z,992.44
2024-04-07T11:59:56.517Z,992.45
2024-04-07T12:00:56.510Z,992.43
2024-04-07T12:01:56.498Z,992.46
2024-04-07T12:02:56.514Z,992.36
2024-04-07T12:03:56.497Z,992.55
2024-04-07T12:04:56.483Z,992.49
2024-04-07T12:05:56.531Z,992.53
2024-04-07T12:06:56.475Z,992.38
2024-04-07T12:07:56.458Z,992.44
2024-04-07T12:08:56.493Z,992.44
2024-04-07T12:09:56.457Z,992.44
2024-04-07T12:10:56.437Z,992.38
2024-04-07T12:11:56.562Z,992.38
2024-04-07T12:12:56.428Z,992.46
2024-04-07T12:13:56.430Z,992.47
2024-04-07T12:14:57.308Z,992.47
2024-04-07T12:15:56.560Z,992.55
2024-04-07T12:16:56.414Z,992.62
2024-04-07T12:17:56.395Z,992.43
2024-04-07T12:18:56.391Z,992.54
2024-04-07T12:19:56.401Z,992.49
2024-04-07T12:20:57.396Z,992.55
2024-04-07T12:21:56.393Z,992.62
2024-04-07T12:22:56.383Z,992.52
2024-04-07T12:23:56.385Z,992.63
2024-04-07T12:24:56.355Z,992.60
2024-04-07T12:25:56.356Z,992.54
2024-04-07T12:26:56.352Z,992.68
2024-04-07T12:27:56.374Z,992.59